createdAt,value
2022-09-18T00:01:24.915Z,15.72
2022-09-18T00:03:54.944Z,15.84
2022-09-18T00:06:24.223Z,15.64
2022-09-18T00:08:52.540Z,15.49
2022-09-18T00:11:22.285Z,15.62
2022-09-18T00:13:50.093Z,15.54
2022-09-18T00:16:18.386Z,15.46
2022-09-18T00:18:48.140Z,16.13
2022-09-18T00:21:17.993Z,15.89
2022-09-18T00:23:45.244Z,15.87
2022-09-18T00:26:14.056Z,15.53
2022-09-18T00:28:40.811Z,15.48
2022-09-18T00:31:13.259Z,15.55
2022-09-18T00:33:40.302Z,15.53
2022-09-18T00:36:09.599Z,15.40
2022-09-18T00:38:36.442Z,15.15
2022-09-18T00:41:05.780Z,15.32
2022-09-18T00:43:34.543Z,15.46
2022-09-18T00:46:30.678Z,15.37
2022-09-18T00:49:29.556Z,15.48
2022-09-18T00:51:58.595Z,15.13
2022-09-18T00:54:39.372Z,15.19
2022-09-18T00:57:12.788Z,15.11
2022-09-18T00:59:43.134Z,15.12
2022-09-18T01:02:09.773Z,15.00
2022-09-18T01:04:36.369Z,15.10
2022-09-18T01:07:29.315Z,15.25
2022-09-18T01:10:14.697Z,15.21
2022-09-18T01:13:02.380Z,15.05
2022-09-18T01:15:57.279Z,15.09
2022-09-18T01:18:29.907Z,15.15
2022-09-18T01:21:14.664Z,15.21
2022-09-18T01:24:09.139Z,15.18
2022-09-18T01:26:55.224Z,15.45
2022-09-18T01:29:24.874Z,15.47
2022-09-18T01:32:01.338Z,15.30
2022-09-18T01:34:39.153Z,15.23
2022-09-18T01:37:17.637Z,15.17
2022-09-18T01:39:53.331Z,15.09
2022-09-18T01:42:24.037Z,14.99
2022-09-18T01:44:55.435Z,15.06
2022-09-18T01:47:26.442Z,15.05
2022-09-18T01:49:55.530Z,14.90
2022-09-18T01:52:33.368Z,15.04
2022-09-18T01:55:02.325Z,15.05
2022-09-18T01:57:39.296Z,14.95
2022-09-18T02:00:11.860Z,15.26
2022-09-18T02:02:46.333Z,15.13
2022-09-18T02:05:19.237Z,15.66
2022-09-18T02:07:54.566Z,15.61
2022-09-18T02:10:24.241Z,15.63
2022-09-18T02:12:53.670Z,15.32
2022-09-18T02:15:23.655Z,15.30
2022-09-18T02:17:58.387Z,15.21
2022-09-18T02:20:29.543Z,15.14
2022-09-18T02:22:59.956Z,15.09
2022-09-18T02:25:43.378Z,15.50
2022-09-18T02:28:13.502Z,15.55
2022-09-18T02:30:40.902Z,15.37
2022-09-18T02:33:27.176Z,15.60
2022-09-18T02:36:01.900Z,15.65
2022-09-18T02:38:56.569Z,15.33
2022-09-18T02:41:38.072Z,15.36
2022-09-18T02:44:28.080Z,15.09
2022-09-18T02:47:29.304Z,15.02
2022-09-18T02:50:15.340Z,14.83
2022-09-18T02:53:31.375Z,14.97
2022-09-18T02:56:09.119Z,14.76
2022-09-18T02:58:51.463Z,14.90
2022-09-18T03:01:21.930Z,14.65
2022-09-18T03:03:48.692Z,14.65
2022-09-18T03:06:15.314Z,14.52
2022-09-18T03:08:41.827Z,14.48
2022-09-18T03:11:09.109Z,14.41
2022-09-18T03:13:35.941Z,14.75
2022-09-18T03:16:03.074Z,14.60
2022-09-18T03:18:29.702Z,14.61
2022-09-18T03:20:56.335Z,14.73
2022-09-18T03:23:24.385Z,14.73
2022-09-18T03:25:51.118Z,14.61
2022-09-18T03:28:18.102Z,14.66
2022-09-18T03:30:45.851Z,14.56
2022-09-18T03:33:12.495Z,14.59
2022-09-18T03:35:39.144Z,14.61
2022-09-18T03:38:05.774Z,14.55
2022-09-18T03:40:32.367Z,14.74
2022-09-18T03:42:58.971Z,14.82
2022-09-18T03:45:25.481Z,14.89
2022-09-18T03:47:52.134Z,14.73
2022-09-18T03:50:18.770Z,14.62
2022-09-18T03:52:50.412Z,14.50
2022-09-18T03:55:17.668Z,14.49
2022-09-18T03:57:46.453Z,14.45
2022-09-18T04:00:14.381Z,14.48
2022-09-18T04:02:41.933Z,14.88
2022-09-18T04:05:09.190Z,15.34
2022-09-18T04:07:36.035Z,15.02
2022-09-18T04:10:03.328Z,15.01
2022-09-18T04:12:30.020Z,15.12
2022-09-18T04:14:56.611Z,14.89
2022-09-18T04:17:23.377Z,14.81
2022-09-18T04:19:53.419Z,14.82
2022-09-18T04:22:21.032Z,14.67
2022-09-18T04:24:50.402Z,15.14
2022-09-18T04:27:17.717Z,15.50
2022-09-18T04:29:44.425Z,15.30
2022-09-18T04:32:11.047Z,15.35
2022-09-18T04:34:37.627Z,15.48
2022-09-18T04:37:09.412Z,15.59
2022-09-18T04:39:36.852Z,15.71
2022-09-18T04:42:03.925Z,15.26
2022-09-18T04:44:30.566Z,14.92
2022-09-18T04:46:57.915Z,14.70
2022-09-18T04:49:24.556Z,14.76
2022-09-18T04:51:51.181Z,14.61
2022-09-18T04:54:17.828Z,14.38
2022-09-18T04:56:44.465Z,14.62
2022-09-18T04:59:11.160Z,14.71
2022-09-18T05:01:37.799Z,15.07
2022-09-18T05:04:04.459Z,15.27
2022-09-18T05:06:31.023Z,15.19
2022-09-18T05:08:58.360Z,14.87
2022-09-18T05:11:26.265Z,14.69
2022-09-18T05:13:56.699Z,14.73
2022-09-18T05:16:24.474Z,14.68
2022-09-18T05:18:52.055Z,14.63
2022-09-18T05:21:19.384Z,15.10
2022-09-18T05:23:48.013Z,14.87
2022-09-18T05:26:14.736Z,14.72
2022-09-18T05:28:41.483Z,14.60
2022-09-18T05:31:08.815Z,14.72
2022-09-18T05:33:36.670Z,14.66
2022-09-18T05:36:05.692Z,14.87
2022-09-18T05:38:32.521Z,14.98
2022-09-18T05:41:01.719Z,14.95
2022-09-18T05:43:29.197Z,15.22
2022-09-18T05:45:56.220Z,15.12
2022-09-18T05:48:23.195Z,15.20
2022-09-18T05:50:52.378Z,15.02
2022-09-18T05:53:21.450Z,14.92
2022-09-18T05:55:48.499Z,14.99
2022-09-18T05:58:17.843Z,15.05
2022-09-18T06:00:45.660Z,14.98
2022-09-18T06:03:14.655Z,14.88
2022-09-18T06:05:41.969Z,15.75
2022-09-18T06:08:11.018Z,15.88
2022-09-18T06:10:39.654Z,15.69
2022-09-18T06:13:13.111Z,15.52
2022-09-18T06:15:40.060Z,15.43
2022-09-18T06:18:08.940Z,15.35
2022-09-18T06:20:35.919Z,15.37
2022-09-18T06:23:03.224Z,15.61
2022-09-18T06:25:30.741Z,15.45
2022-09-18T06:28:01.005Z,15.45
2022-09-18T06:30:29.540Z,15.30
2022-09-18T06:33:00.985Z,15.55
2022-09-18T06:35:27.855Z,15.49
2022-09-18T06:37:55.624Z,15.46
2022-09-18T06:40:22.904Z,15.50
2022-09-18T06:42:55.309Z,15.73
2022-09-18T06:45:21.787Z,15.72
2022-09-18T06:47:48.349Z,15.85
2022-09-18T06:50:14.940Z,15.94
2022-09-18T06:52:41.509Z,15.99
2022-09-18T06:55:09.482Z,16.01
2022-09-18T06:57:36.098Z,16.11
2022-09-18T07:00:04.568Z,16.13
2022-09-18T07:02:32.512Z,16.25
2022-09-18T07:04:59.109Z,16.34
2022-09-18T07:07:25.731Z,16.35
2022-09-18T07:09:52.627Z,16.42
2022-09-18T07:12:19.232Z,16.43
2022-09-18T07:14:46.292Z,16.42
2022-09-18T07:17:17.827Z,16.60
2022-09-18T07:19:45.776Z,16.76
2022-09-18T07:22:12.504Z,16.82
2022-09-18T07:24:39.089Z,16.87
2022-09-18T07:27:06.445Z,17.02
2022-09-18T07:29:33.025Z,17.15
2022-09-18T07:32:00.216Z,17.32
2022-09-18T07:34:26.929Z,17.40
2022-09-18T07:36:53.515Z,17.45
2022-09-18T07:39:20.281Z,17.40
2022-09-18T07:41:46.844Z,17.41
2022-09-18T07:44:13.477Z,17.46
2022-09-18T07:46:40.115Z,17.55
2022-09-18T07:49:06.770Z,17.81
2022-09-18T07:51:33.415Z,18.18
2022-09-18T07:54:00.196Z,18.19
2022-09-18T07:56:26.912Z,18.35
2022-09-18T07:58:53.549Z,18.71
2022-09-18T08:01:20.263Z,19.00
2022-09-18T08:03:46.998Z,19.00
2022-09-18T08:06:13.943Z,19.23
2022-09-18T08:08:40.584Z,19.22
2022-09-18T08:11:07.219Z,19.65
2022-09-18T08:13:33.882Z,19.68
2022-09-18T08:16:02.650Z,19.64
2022-09-18T08:18:29.413Z,19.51
2022-09-18T08:20:57.256Z,19.63
2022-09-18T08:23:23.896Z,20.13
2022-09-18T08:25:50.427Z,20.18
2022-09-18T08:28:17.099Z,20.26
2022-09-18T08:30:44.182Z,20.50
2022-09-18T08:33:10.961Z,20.53
2022-09-18T08:35:37.807Z,20.74
2022-09-18T08:38:04.547Z,20.71
2022-09-18T08:40:54.903Z,20.64
2022-09-18T08:43:27.677Z,20.53
2022-09-18T08:46:01.295Z,20.55
2022-09-18T08:48:31.429Z,20.67
2022-09-18T08:51:04.855Z,20.61
2022-09-18T08:53:43.251Z,20.74
2022-09-18T08:56:18.269Z,20.87
2022-09-18T08:59:04.212Z,20.93
2022-09-18T09:01:42.796Z,21.15
2022-09-18T09:04:27.890Z,21.15
2022-09-18T09:07:26.166Z,21.20
2022-09-18T09:10:23.488Z,21.33
2022-09-18T09:13:27.401Z,21.39
2022-09-18T09:16:03.930Z,21.40
2022-09-18T09:19:09.513Z,21.48
2022-09-18T09:22:14.000Z,21.61
2022-09-18T09:25:28.553Z,21.60
2022-09-18T09:28:42.871Z,21.88
2022-09-18T09:31:10.822Z,21.92
2022-09-18T09:33:48.142Z,21.93
2022-09-18T09:36:17.368Z,21.95
2022-09-18T09:39:08.796Z,22.11
2022-09-18T09:41:45.195Z,22.22
2022-09-18T09:44:30.276Z,22.27
2022-09-18T09:47:09.165Z,22.19
2022-09-18T09:50:02.360Z,22.24
2022-09-18T09:52:29.513Z,22.24
2022-09-18T09:55:01.208Z,22.38
2022-09-18T09:57:42.031Z,22.53
2022-09-18T10:00:19.987Z,22.70
2022-09-18T10:03:05.368Z,22.82
2022-09-18T10:05:53.659Z,22.79
2022-09-18T10:10:57.719Z,23.09
2022-09-18T10:13:33.298Z,23.20
2022-09-18T10:16:18.286Z,23.37
2022-09-18T10:18:46.910Z,23.40
2022-09-18T10:21:22.495Z,23.39
2022-09-18T10:24:05.922Z,23.51
2022-09-18T10:26:41.228Z,23.57
2022-09-18T10:29:10.093Z,23.68
2022-09-18T10:31:57.032Z,23.76
2022-09-18T10:34:42.510Z,23.88
2022-09-18T10:37:36.548Z,23.91
2022-09-18T10:40:05.639Z,23.92
2022-09-18T10:42:34.071Z,24.09
2022-09-18T10:45:07.127Z,24.07
2022-09-18T10:47:36.012Z,24.09
2022-09-18T10:50:06.418Z,24.19
2022-09-18T10:52:46.680Z,24.29
2022-09-18T10:55:28.483Z,24.42
2022-09-18T10:57:55.116Z,24.56
2022-09-18T11:00:21.780Z,24.62
2022-09-18T11:02:53.441Z,24.81
2022-09-18T11:05:22.884Z,24.88
2022-09-18T11:07:56.050Z,24.96
2022-09-18T11:10:25.428Z,24.86
2022-09-18T11:12:58.827Z,24.88
2022-09-18T11:15:30.385Z,25.00
2022-09-18T11:18:03.705Z,25.22
2022-09-18T11:20:41.699Z,25.33
2022-09-18T11:23:34.148Z,25.36
2022-09-18T11:26:16.718Z,25.41
2022-09-18T11:28:43.551Z,25.47
2022-09-18T11:31:19.616Z,25.50
2022-09-18T11:33:48.598Z,25.62
2022-09-18T11:36:22.502Z,25.74
2022-09-18T11:38:49.362Z,25.74
2022-09-18T11:41:35.183Z,25.59
2022-09-18T11:44:14.766Z,25.79
2022-09-18T11:47:04.394Z,25.85
2022-09-18T11:49:42.199Z,25.81
2022-09-18T11:52:33.910Z,25.87
2022-09-18T11:55:04.642Z,25.79
2022-09-18T11:57:56.761Z,25.73
2022-09-18T12:00:26.880Z,25.81
2022-09-18T12:03:24.587Z,25.93
2022-09-18T12:05:53.296Z,26.05
2022-09-18T12:08:39.083Z,25.79
2022-09-18T12:11:05.601Z,25.61
2022-09-18T12:13:45.307Z,25.29
2022-09-18T12:17:00.641Z,25.17
2022-09-18T12:19:49.435Z,24.93
2022-09-18T12:22:44.373Z,24.85
2022-09-18T12:25:15.914Z,24.70
2022-09-18T12:28:06.255Z,24.72
2022-09-18T12:30:51.614Z,24.62
2022-09-18T12:33:56.122Z,24.69
2022-09-18T12:36:51.893Z,24.76
2022-09-18T12:39:46.824Z,24.66
2022-09-18T12:42:31.744Z,24.73
2022-09-18T12:45:30.796Z,24.72
2022-09-18T12:48:19.241Z,24.60
2022-09-18T12:51:10.246Z,24.55
2022-09-18T12:54:06.703Z,24.51
2022-09-18T12:56:48.825Z,24.38
2022-09-18T12:59:32.265Z,24.34
2022-09-18T13:02:27.222Z,24.43
2022-09-18T13:05:00.512Z,24.41
2022-09-18T13:07:42.963Z,24.38
2022-09-18T13:10:28.635Z,24.39
2022-09-18T13:12:55.659Z,24.22
2022-09-18T13:15:35.577Z,24.18
2022-09-18T13:18:23.592Z,24.28
2022-09-18T13:20:53.895Z,24.46
2022-09-18T13:23:29.996Z,24.46
2022-09-18T13:25:57.939Z,24.37
2022-09-18T13:28:27.996Z,24.31
2022-09-18T13:31:16.895Z,24.34
2022-09-18T13:34:17.849Z,24.29
2022-09-18T13:36:46.646Z,24.36
2022-09-18T13:39:26.806Z,24.42
2022-09-18T13:41:56.304Z,24.29
2022-09-18T13:44:35.211Z,24.38
2022-09-18T13:47:15.781Z,24.34
2022-09-18T13:49:43.143Z,24.17
2022-09-18T13:52:43.094Z,24.29
2022-09-18T13:55:18.364Z,24.40
2022-09-18T13:57:46.262Z,24.34
2022-09-18T14:00:27.463Z,24.34
2022-09-18T14:03:13.239Z,24.37
2022-09-18T14:05:43.114Z,24.19
2022-09-18T14:08:19.008Z,24.47
2022-09-18T14:11:14.918Z,24.43
2022-09-18T14:13:54.622Z,24.24
2022-09-18T14:16:22.039Z,24.31
2022-09-18T14:18:48.846Z,24.22
2022-09-18T14:21:19.145Z,24.36
2022-09-18T14:23:49.921Z,24.30
2022-09-18T14:26:35.244Z,24.30
2022-09-18T14:29:18.359Z,24.36
2022-09-18T14:31:47.586Z,24.24
2022-09-18T14:34:21.050Z,24.33
2022-09-18T14:36:51.324Z,24.45
2022-09-18T14:39:34.710Z,24.36
2022-09-18T14:42:05.658Z,24.36
2022-09-18T14:44:34.597Z,24.23
2022-09-18T14:47:04.828Z,24.18
2022-09-18T14:49:43.831Z,24.09
2022-09-18T14:52:20.413Z,24.15
2022-09-18T14:54:49.804Z,24.19
2022-09-18T14:57:22.107Z,24.43
2022-09-18T14:59:51.886Z,24.34
2022-09-18T15:02:29.466Z,24.33
2022-09-18T15:04:59.275Z,24.31
2022-09-18T15:07:27.769Z,24.32
2022-09-18T15:09:56.857Z,24.33
2022-09-18T15:12:26.359Z,24.26
2022-09-18T15:14:53.259Z,24.34
2022-09-18T15:17:23.362Z,24.22
2022-09-18T15:20:11.505Z,24.20
2022-09-18T15:22:42.610Z,24.10
2022-09-18T15:25:23.225Z,24.02
2022-09-18T15:27:52.013Z,23.96
2022-09-18T15:30:21.626Z,24.11
2022-09-18T15:32:58.824Z,24.11
2022-09-18T15:35:29.714Z,24.07
2022-09-18T15:38:03.163Z,23.99
2022-09-18T15:40:34.230Z,23.92
2022-09-18T15:43:06.659Z,24.19
2022-09-18T15:45:36.228Z,24.11
2022-09-18T15:48:34.903Z,24.08
2022-09-18T15:51:13.568Z,24.01
2022-09-18T15:53:40.985Z,23.72
2022-09-18T15:56:17.967Z,23.84
2022-09-18T15:58:54.550Z,23.78
2022-09-18T16:01:25.006Z,23.77
2022-09-18T16:04:05.570Z,23.76
2022-09-18T16:06:42.101Z,23.86
2022-09-18T16:09:23.073Z,23.69
2022-09-18T16:11:49.788Z,23.69
2022-09-18T16:14:41.353Z,23.72
2022-09-18T16:17:31.942Z,23.65
2022-09-18T16:20:01.935Z,23.49
2022-09-18T16:22:30.457Z,23.48
2022-09-18T16:24:58.111Z,23.45
2022-09-18T16:27:26.332Z,23.43
2022-09-18T16:29:53.437Z,23.52
2022-09-18T16:32:21.781Z,23.55
2022-09-18T16:34:48.851Z,23.56
2022-09-18T16:37:17.107Z,23.55
2022-09-18T16:39:45.523Z,23.47
2022-09-18T16:42:18.589Z,23.48
2022-09-18T16:44:46.130Z,23.47
2022-09-18T16:47:14.959Z,23.48
2022-09-18T16:49:44.447Z,23.46
2022-09-18T16:52:11.749Z,23.40
2022-09-18T16:54:38.526Z,23.35
2022-09-18T16:57:18.336Z,23.26
2022-09-18T16:59:45.101Z,23.13
2022-09-18T17:02:15.733Z,23.06
2022-09-18T17:04:44.331Z,22.99
2022-09-18T17:07:11.189Z,22.88
2022-09-18T17:09:37.972Z,22.75
2022-09-18T17:12:05.078Z,22.71
2022-09-18T17:14:31.928Z,22.76
2022-09-18T17:16:58.835Z,22.71
2022-09-18T17:19:26.012Z,22.50
2022-09-18T17:21:53.671Z,22.36
2022-09-18T17:24:25.665Z,22.35
2022-09-18T17:26:55.492Z,22.40
2022-09-18T17:29:22.564Z,22.34
2022-09-18T17:31:49.607Z,22.27
2022-09-18T17:34:16.688Z,22.11
2022-09-18T17:36:43.778Z,22.05
2022-09-18T17:39:10.687Z,22.21
2022-09-18T17:41:38.162Z,22.38
2022-09-18T17:44:05.923Z,22.24
2022-09-18T17:46:34.857Z,22.07
2022-09-18T17:49:02.032Z,21.85
2022-09-18T17:51:29.385Z,21.78
2022-09-18T17:54:05.968Z,21.74
2022-09-18T17:56:34.033Z,21.58
2022-09-18T17:59:05.451Z,21.54
2022-09-18T18:01:36.312Z,21.55
2022-09-18T18:04:04.565Z,21.42
2022-09-18T18:06:32.160Z,21.36
2022-09-18T18:08:59.118Z,21.26
2022-09-18T18:11:26.201Z,21.21
2022-09-18T18:13:54.461Z,21.19
2022-09-18T18:16:24.828Z,21.23
2022-09-18T18:18:55.239Z,21.50
2022-09-18T18:21:22.357Z,21.29
2022-09-18T18:23:49.317Z,21.16
2022-09-18T18:26:15.945Z,21.14
2022-09-18T18:28:42.889Z,21.31
2022-09-18T18:31:14.291Z,21.35
2022-09-18T18:33:42.726Z,21.32
2022-09-18T18:36:17.014Z,21.29
2022-09-18T18:38:45.933Z,21.04
2022-09-18T18:41:13.751Z,21.02
2022-09-18T18:43:41.971Z,20.91
2022-09-18T18:46:12.840Z,20.79
2022-09-18T18:48:40.898Z,20.74
2022-09-18T18:51:14.509Z,20.76
2022-09-18T18:53:42.172Z,20.89
2022-09-18T18:56:15.226Z,20.89
2022-09-18T18:58:43.999Z,20.87
2022-09-18T19:01:15.659Z,21.36
2022-09-18T19:03:48.645Z,21.43
2022-09-18T19:06:15.405Z,21.13
2022-09-18T19:08:46.299Z,20.91
2022-09-18T19:11:18.824Z,20.83
2022-09-18T19:13:54.095Z,20.83
2022-09-18T19:16:21.039Z,20.76
2022-09-18T19:18:59.716Z,20.70
2022-09-18T19:21:28.828Z,20.58
2022-09-18T19:23:59.285Z,20.68
2022-09-18T19:26:28.969Z,20.84
2022-09-18T19:28:57.912Z,20.70
2022-09-18T19:31:26.381Z,20.56
2022-09-18T19:33:53.590Z,20.42
2022-09-18T19:36:23.546Z,20.40
2022-09-18T19:39:01.129Z,20.38
2022-09-18T19:41:46.663Z,20.52
2022-09-18T19:44:50.321Z,20.84
2022-09-18T19:47:23.685Z,20.96
2022-09-18T19:49:51.573Z,21.03
2022-09-18T19:52:21.507Z,20.99
2022-09-18T19:54:50.920Z,20.92
2022-09-18T19:57:18.778Z,20.81
2022-09-18T19:59:47.149Z,20.96
2022-09-18T20:02:17.446Z,21.18
2022-09-18T20:04:44.476Z,20.79
2022-09-18T20:07:11.306Z,20.90
2022-09-18T20:09:40.266Z,21.06
2022-09-18T20:12:08.115Z,21.04
2022-09-18T20:14:34.769Z,21.02
2022-09-18T20:17:01.394Z,21.01
2022-09-18T20:19:27.947Z,21.01
2022-09-18T20:21:54.730Z,21.25
2022-09-18T20:24:21.548Z,21.19
2022-09-18T20:26:48.120Z,21.27
2022-09-18T20:29:16.407Z,21.18
2022-09-18T20:31:43.728Z,21.46
2022-09-18T20:34:11.187Z,21.26
2022-09-18T20:36:38.247Z,21.40
2022-09-18T20:39:05.411Z,21.17
2022-09-18T20:41:32.370Z,21.34
2022-09-18T20:44:01.218Z,21.44
2022-09-18T20:46:27.985Z,21.64
2022-09-18T20:48:59.892Z,21.72
2022-09-18T20:51:29.599Z,21.74
2022-09-18T20:53:57.831Z,21.81
2022-09-18T20:56:36.770Z,21.78
2022-09-18T20:59:05.074Z,21.61
2022-09-18T21:01:35.221Z,21.71
2022-09-18T21:04:02.672Z,21.77
2022-09-18T21:06:34.643Z,21.80
2022-09-18T21:09:06.947Z,21.74
2022-09-18T21:11:40.167Z,21.69
2022-09-18T21:14:08.527Z,21.75
2022-09-18T21:16:40.465Z,21.74
2022-09-18T21:19:07.220Z,21.73
2022-09-18T21:21:34.435Z,21.93
2022-09-18T21:24:02.212Z,21.94
2022-09-18T21:26:35.892Z,21.78
2022-09-18T21:29:15.049Z,21.84
2022-09-18T21:31:42.984Z,21.78
2022-09-18T21:34:12.097Z,21.67
2022-09-18T21:36:41.597Z,21.67
2022-09-18T21:39:09.550Z,21.62
2022-09-18T21:41:37.972Z,21.54
2022-09-18T21:44:06.749Z,21.53
2022-09-18T21:46:36.171Z,21.63
2022-09-18T21:49:05.995Z,21.45
2022-09-18T21:51:37.082Z,21.57
2022-09-18T21:54:05.693Z,21.45
2022-09-18T21:56:33.223Z,21.37
2022-09-18T21:59:00.405Z,21.43
2022-09-18T22:01:31.139Z,21.43
2022-09-18T22:04:00.914Z,21.49
2022-09-18T22:06:35.848Z,21.53
2022-09-18T22:09:08.044Z,21.66
2022-09-18T22:11:37.003Z,21.72
2022-09-18T22:14:09.027Z,21.73
2022-09-18T22:16:36.735Z,21.60
2022-09-18T22:19:04.065Z,21.62
2022-09-18T22:21:32.999Z,21.62
2022-09-18T22:24:10.823Z,21.48
2022-09-18T22:26:43.285Z,21.51
2022-09-18T22:29:22.373Z,21.65
2022-09-18T22:31:50.031Z,21.56
2022-09-18T22:34:19.704Z,21.52
2022-09-18T22:36:47.921Z,21.55
2022-09-18T22:39:16.416Z,21.64
2022-09-18T22:41:43.727Z,21.61
2022-09-18T22:44:11.450Z,21.58
2022-09-18T22:46:39.857Z,21.48
2022-09-18T22:49:07.287Z,21.48
2022-09-18T22:51:34.517Z,21.60
2022-09-18T22:54:04.952Z,21.60
2022-09-18T22:56:32.968Z,21.67
2022-09-18T22:59:02.237Z,21.62
2022-09-18T23:01:40.866Z,21.59
2022-09-18T23:04:07.693Z,21.63
2022-09-18T23:06:34.862Z,21.75
2022-09-18T23:09:03.365Z,21.76
2022-09-18T23:11:32.412Z,21.53
2022-09-18T23:14:01.430Z,21.55
2022-09-18T23:16:30.519Z,21.70
2022-09-18T23:19:00.029Z,21.62
2022-09-18T23:21:28.542Z,21.44
2022-09-18T23:23:56.134Z,21.42
2022-09-18T23:26:25.490Z,21.50
2022-09-18T23:28:54.435Z,21.43
2022-09-18T23:31:29.804Z,21.60
2022-09-18T23:33:58.913Z,21.45
2022-09-18T23:36:26.895Z,21.46
2022-09-18T23:38:59.082Z,21.48
2022-09-18T23:41:26.159Z,21.49
2022-09-18T23:43:54.275Z,21.51
2022-09-18T23:46:22.302Z,21.67
2022-09-18T23:48:54.900Z,21.58
2022-09-18T23:51:32.779Z,21.57
2022-09-18T23:54:01.967Z,21.58
2022-09-18T23:56:31.208Z,21.34
2022-09-18T23:59:00.475Z,21.45
